Time;durP1;ratioP1;P1;durP2;ratioP2;P2;SDS_P1;SDS_P2;PMS_P1;PMS_P2;Temp;Humidity;BMP_temperature;BMP_pressure;BME280_temperature;BME280_humidity;BME280_pressure;Samples;Min_cycle;Max_cycle;Signal;HPM_P1;HPM_P2
2023/03/29 00:02:04;;;;;;;1.37;1.27;;;8.80;99.90;;;8.85;nan;100976.34;4973720;28;20619;-66
2023/03/29 00:04:32;;;;;;;1.70;1.30;;;8.80;99.90;;;8.81;nan;100968.81;4974050;28;20615;-67
2023/03/29 00:07:03;;;;;;;0.90;0.90;;;8.70;99.90;;;8.77;nan;100964.72;4973395;28;20662;-66
2023/03/29 00:09:32;;;;;;;0.77;0.77;;;8.70;99.90;;;8.71;nan;100963.28;4976559;28;20630;-66
2023/03/29 00:12:00;;;;;;;1.00;1.00;;;8.60;99.90;;;8.69;nan;100965.16;4993443;28;20634;-67
2023/03/29 00:14:29;;;;;;;1.80;1.23;;;8.60;99.90;;;8.70;nan;100969.44;4992168;28;20664;-66
2023/03/29 00:16:57;;;;;;;1.07;1.07;;;8.60;99.90;;;8.71;nan;100965.06;5006965;28;20662;-66
2023/03/29 00:19:25;;;;;;;0.90;0.90;;;8.60;99.90;;;8.72;nan;100966.75;5005854;28;21103;-66
2023/03/29 00:21:52;;;;;;;1.07;1.07;;;8.60;99.90;;;8.70;nan;100961.63;4987923;28;20638;-66
2023/03/29 00:24:20;;;;;;;1.50;1.40;;;8.60;99.90;;;8.72;nan;100956.34;4972722;28;20623;-66
2023/03/29 00:26:47;;;;;;;0.77;0.77;;;8.60;99.90;;;8.77;nan;100960.34;4972522;28;20659;-65
2023/03/29 00:29:14;;;;;;;1.57;0.80;;;8.60;99.90;;;8.80;nan;100961.91;4980180;28;20696;-66
2023/03/29 00:31:44;;;;;;;1.07;1.07;;;8.70;99.90;;;8.75;nan;100948.34;4991081;28;20670;-68
2023/03/29 00:34:11;;;;;;;1.90;1.07;;;8.70;99.90;;;8.74;nan;100949.28;4992084;28;21269;-68
2023/03/29 00:36:39;;;;;;;1.87;1.20;;;8.60;99.90;;;8.72;nan;100944.16;4992959;28;20654;-66
2023/03/29 00:39:06;;;;;;;1.87;1.00;;;8.60;99.90;;;8.75;nan;100938.78;4982757;28;20999;-67
2023/03/29 00:41:33;;;;;;;1.23;1.13;;;8.70;99.90;;;8.77;nan;100942.16;4991546;28;21203;-66
2023/03/29 00:44:03;;;;;;;1.10;1.10;;;8.70;99.90;;;8.80;nan;100936.75;4991175;28;20638;-67
2023/03/29 00:46:33;;;;;;;0.80;0.80;;;8.70;99.90;;;8.81;nan;100937.59;4990600;28;20720;-66
2023/03/29 00:49:12;;;;;;;1.07;1.07;;;8.70;99.90;;;8.78;nan;100938.59;4980904;28;20646;-66
2023/03/29 00:51:41;;;;;;;1.17;1.17;;;8.70;99.90;;;8.81;nan;100938.44;4987884;28;20658;-65
2023/03/29 00:54:14;;;;;;;0.80;0.80;;;8.70;99.90;;;8.81;nan;100945.38;5005991;28;20629;-67
2023/03/29 00:56:44;;;;;;;0.83;0.83;;;8.70;99.90;;;8.84;nan;100942.63;4987700;28;21227;-66
2023/03/29 00:59:18;;;;;;;0.87;0.87;;;8.70;99.90;;;8.77;nan;100939.53;4988215;28;20693;-68
2023/03/29 01:01:53;;;;;;;1.00;1.00;;;8.70;99.90;;;8.76;nan;100937.84;5005821;28;20668;-66
2023/03/29 01:04:56;;;;;;;1.33;1.27;;;8.70;99.90;;;8.76;nan;100937.84;5007096;28;20630;-67
2023/03/29 01:07:29;;;;;;;1.00;0.97;;;8.70;99.90;;;8.77;nan;100931.72;4981391;28;20647;-66
2023/03/29 01:10:15;;;;;;;0.90;0.90;;;8.70;99.90;;;8.81;nan;100932.38;4987684;28;21219;-65
2023/03/29 01:12:50;;;;;;;1.20;1.10;;;8.70;99.90;;;8.77;nan;100934.34;5006814;28;21006;-66
2023/03/29 01:15:22;;;;;;;1.50;1.40;;;8.70;99.90;;;8.74;nan;100921.50;5006015;28;20634;-64
2023/03/29 01:17:52;;;;;;;0.93;0.93;;;8.70;99.90;;;8.73;nan;100909.41;4988053;28;20630;-65
2023/03/29 01:20:47;;;;;;;2.50;1.40;;;8.60;99.90;;;8.71;nan;100910.44;4969965;28;21192;-67
2023/03/29 01:23:29;;;;;;;0.87;0.87;;;8.60;99.90;;;8.66;nan;100907.28;4987181;28;20643;-67
2023/03/29 01:28:36;;;;;;;1.67;1.07;;;8.60;99.90;;;8.59;nan;100914.59;5009594;28;20706;-67
2023/03/29 01:31:08;;;;;;;1.10;0.90;;;8.50;99.90;;;8.54;nan;100914.88;5009027;28;20692;-65
2023/03/29 01:33:43;;;;;;;1.20;1.20;;;8.50;99.90;;;8.53;nan;100907.16;5010914;28;20616;-66
2023/03/29 01:36:19;;;;;;;2.27;1.07;;;8.50;99.90;;;8.48;nan;100897.03;5006796;28;20693;-62
2023/03/29 01:39:03;;;;;;;1.03;0.70;;;8.40;99.90;;;8.46;nan;100895.44;5008661;28;20651;-65
2023/03/29 01:41:51;;;;;;;1.07;0.97;;;8.40;99.90;;;8.45;nan;100899.00;5006833;28;20634;-65
2023/03/29 01:45:14;;;;;;;0.90;0.90;;;8.30;99.90;;;8.43;nan;100895.63;5008767;28;20737;-65
2023/03/29 01:48:10;;;;;;;1.03;1.00;;;8.30;99.90;;;8.43;nan;100898.25;5007010;28;21232;-65
2023/03/29 01:51:04;;;;;;;1.60;1.00;;;8.30;99.90;;;8.41;nan;100900.91;4999907;28;21072;-64
2023/03/29 01:54:02;;;;;;;1.13;1.13;;;8.30;99.90;;;8.44;nan;100892.09;5009410;28;21191;-66
2023/03/29 01:56:35;;;;;;;1.27;1.27;;;8.40;99.90;;;8.44;nan;100887.75;5006006;28;20650;-64
2023/03/29 01:59:12;;;;;;;0.50;0.50;;;8.40;99.90;;;8.43;nan;100887.84;4994580;28;20637;-65
2023/03/29 02:01:47;;;;;;;0.60;0.60;;;8.30;99.90;;;8.39;nan;100878.56;5005024;28;20652;-65
2023/03/29 02:04:21;;;;;;;0.73;0.73;;;8.30;99.90;;;8.40;nan;100880.22;5009056;28;20650;-65
2023/03/29 02:06:53;;;;;;;1.63;1.10;;;8.30;99.90;;;8.44;nan;100879.94;5008974;28;21090;-65
2023/03/29 02:09:21;;;;;;;0.73;0.73;;;8.30;99.90;;;8.41;nan;100877.50;5006152;28;20701;-66
2023/03/29 02:11:50;;;;;;;1.23;1.23;;;8.30;99.90;;;8.41;nan;100877.50;4989894;28;20664;-65
2023/03/29 02:14:18;;;;;;;1.77;0.80;;;8.30;99.90;;;8.40;nan;100860.25;5010114;28;20676;-66
2023/03/29 02:16:45;;;;;;;0.60;0.60;;;8.30;99.90;;;8.39;nan;100855.97;5009849;28;21296;-65
2023/03/29 02:19:14;;;;;;;1.10;1.10;;;8.30;99.90;;;8.31;nan;100855.59;5005880;28;20629;-66
2023/03/29 02:21:52;;;;;;;0.70;0.70;;;8.20;99.90;;;8.30;nan;100858.28;4998014;28;20638;-64
2023/03/29 02:24:21;;;;;;;0.80;0.80;;;8.20;99.90;;;8.29;nan;100852.25;5003994;28;21198;-66
2023/03/29 02:26:48;;;;;;;0.83;0.83;;;8.20;99.90;;;8.30;nan;100853.94;5008946;28;21021;-66
2023/03/29 02:29:16;;;;;;;1.03;1.03;;;8.20;99.90;;;8.29;nan;100846.19;5009060;28;21233;-65
2023/03/29 02:31:55;;;;;;;0.83;0.70;;;8.20;99.90;;;8.30;nan;100848.72;5010640;28;20675;-65
2023/03/29 02:34:29;;;;;;;2.33;1.40;;;8.20;99.90;;;8.31;nan;100849.53;5009693;28;20624;-65
2023/03/29 02:37:05;;;;;;;2.13;1.00;;;8.20;99.90;;;8.27;nan;100838.50;5008799;28;20664;-65
2023/03/29 02:39:34;;;;;;;0.87;0.87;;;8.20;99.90;;;8.23;nan;100836.13;5008545;28;20633;-65
2023/03/29 02:42:03;;;;;;;1.37;1.30;;;8.10;99.90;;;8.25;nan;100835.16;5002591;28;20638;-63
2023/03/29 02:44:35;;;;;;;1.57;1.47;;;8.20;99.90;;;8.30;nan;100827.94;5006570;28;21240;-65
2023/03/29 02:47:15;;;;;;;0.93;0.93;;;8.20;99.90;;;8.26;nan;100831.63;5025555;28;20657;-66
2023/03/29 02:49:43;;;;;;;1.30;1.20;;;8.20;99.90;;;8.23;nan;100836.13;5004877;28;20641;-65
2023/03/29 02:52:17;;;;;;;1.13;1.10;;;8.10;99.90;;;8.25;nan;100831.69;5005808;28;20958;-65
2023/03/29 02:54:48;;;;;;;1.53;1.47;;;8.10;99.90;;;8.30;nan;100824.50;5011146;28;20706;-65
2023/03/29 02:57:14;;;;;;;2.87;1.40;;;8.20;99.90;;;8.33;nan;100822.53;5002420;28;20653;-66
2023/03/29 02:59:43;;;;;;;1.40;1.30;;;8.20;99.90;;;8.35;nan;100819.84;5013939;28;20633;-64
2023/03/29 03:02:10;;;;;;;4.23;1.37;;;8.30;99.90;;;8.36;nan;100811.13;5002843;28;21199;-65
2023/03/29 03:04:37;;;;;;;1.30;1.20;;;8.30;99.90;;;8.33;nan;100816.50;4993669;28;20633;-65
2023/03/29 03:07:04;;;;;;;2.20;1.63;;;8.30;99.90;;;8.35;nan;100814.63;4993665;28;20638;-64
2023/03/29 03:09:32;;;;;;;1.37;1.37;;;8.30;99.90;;;8.36;nan;100816.31;4994139;28;20642;-67
2023/03/29 03:11:59;;;;;;;5.80;1.40;;;8.30;99.90;;;8.29;nan;100815.84;4994737;28;20662;-69
2023/03/29 03:14:27;;;;;;;1.30;1.20;;;8.30;99.90;;;8.22;nan;100806.69;5005321;28;20687;-64
2023/03/29 03:16:54;;;;;;;1.77;1.67;;;8.20;99.90;;;8.24;nan;100817.03;5013601;28;21299;-67
2023/03/29 03:19:21;;;;;;;1.93;1.43;;;8.20;99.90;;;8.25;nan;100813.47;5013019;28;20640;-64
2023/03/29 03:21:49;;;;;;;2.13;2.03;;;8.20;99.90;;;8.30;nan;100808.91;5013368;28;20641;-67
2023/03/29 03:24:16;;;;;;;1.93;1.47;;;8.20;99.90;;;8.32;nan;100813.06;5013746;28;21173;-64
2023/03/29 03:26:48;;;;;;;1.40;1.40;;;8.30;99.90;;;8.31;nan;100806.19;5011666;28;20710;-68
2023/03/29 03:29:15;;;;;;;2.63;2.43;;;8.20;99.90;;;8.34;nan;100807.78;5012710;28;20640;-65
2023/03/29 03:31:43;;;;;;;2.13;2.03;;;8.30;99.90;;;8.31;nan;100802.75;5012833;28;20735;-66
2023/03/29 03:34:10;;;;;;;2.40;2.20;;;8.30;99.90;;;8.32;nan;100796.63;5008286;28;20622;-65
2023/03/29 03:36:37;;;;;;;2.60;2.40;;;8.30;99.90;;;8.32;nan;100800.09;5009933;28;20660;-65
2023/03/29 03:39:06;;;;;;;2.23;2.13;;;8.30;99.90;;;8.31;nan;100798.38;5013533;28;20612;-65
2023/03/29 03:41:33;;;;;;;2.17;2.07;;;8.30;99.90;;;8.32;nan;100796.63;5013183;28;20621;-65
2023/03/29 03:44:00;;;;;;;1.47;1.37;;;8.30;99.90;;;8.31;nan;100801.00;5011709;28;21206;-65
2023/03/29 03:46:27;;;;;;;2.10;2.00;;;8.30;99.90;;;8.27;nan;100796.91;5013498;28;21033;-65
2023/03/29 03:48:56;;;;;;;2.23;2.13;;;8.20;99.90;;;8.24;nan;100793.63;5008631;28;21210;-65
2023/03/29 03:51:23;;;;;;;1.90;1.80;;;8.20;99.90;;;8.24;nan;100791.03;5005491;28;20662;-65
2023/03/29 03:53:50;;;;;;;2.70;1.70;;;8.20;99.90;;;8.22;nan;100785.09;4992524;28;20726;-66
2023/03/29 03:56:19;;;;;;;1.90;1.80;;;8.20;99.90;;;8.19;nan;100782.66;4994093;28;20727;-66
2023/03/29 03:58:46;;;;;;;1.60;1.60;;;8.20;99.90;;;8.18;nan;100783.56;5008232;28;20626;-65
2023/03/29 04:01:13;;;;;;;1.30;1.10;;;8.20;99.90;;;8.17;nan;100780.16;5003971;28;21186;-66
2023/03/29 04:03:40;;;;;;;0.80;0.80;;;8.20;99.90;;;8.11;nan;100780.53;5013211;28;20777;-63
2023/03/29 04:06:08;;;;;;;0.97;0.97;;;8.10;99.90;;;8.02;nan;100790.63;5010360;28;20661;-65
2023/03/29 04:08:35;;;;;;;1.87;1.30;;;8.00;99.90;;;7.94;nan;100790.25;5012425;28;21044;-65
2023/03/29 04:11:03;;;;;;;1.20;1.20;;;7.90;99.90;;;7.89;nan;100794.84;5012847;28;20664;-65
2023/03/29 04:13:30;;;;;;;1.10;1.00;;;7.90;99.90;;;7.84;nan;100790.78;5012364;28;20637;-65
2023/03/29 04:15:57;;;;;;;1.77;1.67;;;7.80;99.90;;;7.80;nan;100794.47;5013435;28;20667;-65
2023/03/29 04:18:26;;;;;;;0.87;0.87;;;7.80;99.90;;;7.77;nan;100792.03;4992768;28;20622;-66
2023/03/29 04:20:54;;;;;;;1.07;1.07;;;7.70;99.90;;;7.73;nan;100798.34;5003169;28;20642;-65
2023/03/29 04:23:20;;;;;;;0.90;0.90;;;7.70;99.90;;;7.66;nan;100794.44;5010978;28;21025;-66
2023/03/29 04:25:47;;;;;;;1.03;1.03;;;7.60;99.90;;;7.59;nan;100800.06;5011324;28;20682;-63
2023/03/29 04:28:15;;;;;;;1.33;1.23;;;7.60;99.90;;;7.54;nan;100802.91;5010914;28;20645;-65
2023/03/29 04:30:41;;;;;;;1.90;1.80;;;7.50;99.90;;;7.53;nan;100796.06;5012821;28;21190;-66
2023/03/29 04:33:09;;;;;;;4.40;1.50;;;7.50;99.90;;;7.53;nan;100803.84;5011717;28;20985;-65
2023/03/29 04:35:36;;;;;;;1.20;1.20;;;7.50;99.90;;;7.55;nan;100803.75;5012480;28;20634;-65
2023/03/29 04:38:03;;;;;;;1.93;1.80;;;7.50;99.90;;;7.50;nan;100797.97;5011813;28;20668;-66
2023/03/29 04:40:30;;;;;;;1.47;1.47;;;7.50;99.90;;;7.56;nan;100793.28;5007331;28;20626;-65
2023/03/29 04:42:58;;;;;;;1.40;1.30;;;7.60;99.90;;;7.61;nan;100791.25;5011135;28;20668;-67
2023/03/29 04:45:26;;;;;;;1.50;1.40;;;7.60;99.90;;;7.61;nan;100796.44;5011664;28;20622;-65
2023/03/29 04:47:58;;;;;;;1.53;1.43;;;7.60;99.90;;;7.59;nan;100797.47;5011321;28;20699;-64
2023/03/29 04:50:25;;;;;;;1.00;1.00;;;7.60;99.90;;;7.59;nan;100793.09;5010028;28;20636;-64
2023/03/29 04:52:52;;;;;;;0.50;0.50;;;7.60;99.90;;;7.56;nan;100793.28;5009262;28;21264;-66
2023/03/29 04:55:19;;;;;;;0.77;0.77;;;7.60;99.90;;;7.55;nan;100789.03;4997751;28;20699;-66
2023/03/29 04:57:46;;;;;;;0.60;0.60;;;7.50;99.90;;;7.51;nan;100787.53;5010388;28;20653;-66
2023/03/29 05:00:14;;;;;;;1.30;0.87;;;7.50;99.90;;;7.48;nan;100789.44;5009654;28;21190;-65
2023/03/29 05:02:43;;;;;;;0.97;0.97;;;7.50;99.90;;;7.48;nan;100797.22;5001726;28;20637;-66
2023/03/29 05:05:11;;;;;;;1.83;0.77;;;7.40;99.90;;;7.46;nan;100789.53;5007998;28;20649;-66
2023/03/29 05:07:38;;;;;;;1.20;1.20;;;7.40;99.90;;;7.49;nan;100797.16;5010047;28;20661;-65
2023/03/29 05:10:07;;;;;;;0.83;0.83;;;7.40;99.90;;;7.51;nan;100797.06;5010842;28;21003;-63
2023/03/29 05:12:34;;;;;;;1.60;1.50;;;7.50;99.90;;;7.53;nan;100797.81;5011994;28;20672;-68
2023/03/29 05:15:02;;;;;;;1.20;1.07;;;7.50;99.90;;;7.52;nan;100793.53;5005588;28;20211;-65
2023/03/29 05:17:30;;;;;;;1.57;1.47;;;7.50;99.90;;;7.47;nan;100796.41;5011361;28;20650;-67
2023/03/29 05:19:57;;;;;;;3.60;1.33;;;7.50;99.90;;;7.43;nan;100800.06;5013625;28;20628;-63
2023/03/29 05:22:24;;;;;;;2.67;1.43;;;7.40;99.90;;;7.40;nan;100807.22;5010818;28;20206;-67
2023/03/29 05:24:51;;;;;;;1.00;1.00;;;7.40;99.90;;;7.41;nan;100801.09;5000066;28;20719;-64
2023/03/29 05:27:21;;;;;;;1.20;1.20;;;7.30;99.90;;;7.40;nan;100802.88;4998576;28;21057;-65
2023/03/29 05:29:48;;;;;;;1.93;1.33;;;7.30;99.90;;;7.43;nan;100801.84;5002091;28;21192;-67
2023/03/29 05:32:15;;;;;;;1.40;1.30;;;7.30;99.90;;;7.44;nan;100806.94;5001074;28;20679;-65
2023/03/29 05:34:42;;;;;;;1.77;1.67;;;7.40;99.90;;;7.48;nan;100800.66;5009085;28;20622;-66
2023/03/29 05:37:09;;;;;;;0.80;0.80;;;7.40;99.90;;;7.55;nan;100804.59;5008954;28;21045;-66
2023/03/29 05:39:36;;;;;;;1.97;1.87;;;7.50;99.90;;;7.59;nan;100800.91;5010806;28;21043;-67
2023/03/29 05:42:04;;;;;;;1.10;1.00;;;7.60;99.90;;;7.63;nan;100797.19;5010635;28;20642;-66
2023/03/29 05:44:31;;;;;;;2.10;1.60;;;7.60;99.90;;;7.65;nan;100797.09;5011445;28;20630;-66
2023/03/29 05:46:58;;;;;;;1.30;0.87;;;7.60;99.90;;;7.67;nan;100793.50;4994631;28;20661;-66
2023/03/29 05:49:25;;;;;;;1.17;0.57;;;7.70;99.90;;;7.67;nan;100796.09;4991124;28;20617;-66
2023/03/29 05:51:55;;;;;;;1.33;1.30;;;7.60;99.90;;;7.69;nan;100788.22;5005583;28;20673;-66
2023/03/29 05:54:23;;;;;;;1.40;1.30;;;7.60;99.90;;;7.71;nan;100797.59;5010619;28;20622;-66
2023/03/29 05:56:51;;;;;;;1.30;1.20;;;7.70;99.90;;;7.82;nan;100797.81;5010914;28;20641;-64
2023/03/29 05:59:18;;;;;;;1.73;1.63;;;7.80;99.90;;;7.98;nan;100796.94;5004516;28;20629;-66
2023/03/29 06:01:45;;;;;;;1.97;1.83;;;7.90;99.90;;;8.18;nan;100800.00;5010881;28;20683;-66
2023/03/29 06:04:14;;;;;;;1.40;1.40;;;8.10;99.90;;;8.36;nan;100803.31;5011408;28;20624;-65
2023/03/29 06:06:41;;;;;;;1.93;1.80;;;8.20;99.90;;;8.51;nan;100802.41;5010189;28;20663;-66
2023/03/29 06:09:08;;;;;;;1.43;1.37;;;8.40;99.90;;;8.69;nan;100813.47;5009972;28;20613;-66
2023/03/29 06:11:35;;;;;;;2.37;1.97;;;8.60;99.90;;;8.84;nan;100813.34;5006136;28;21250;-67
2023/03/29 06:14:02;;;;;;;2.33;1.50;;;8.70;99.90;;;8.91;nan;100812.03;4990796;28;20614;-66
2023/03/29 06:16:29;;;;;;;1.23;1.17;;;8.80;99.90;;;9.10;nan;100817.75;5005107;28;20661;-65
2023/03/29 06:18:57;;;;;;;1.63;1.53;;;9.00;99.90;;;9.30;nan;100817.34;5014158;28;21146;-66
2023/03/29 06:21:25;;;;;;;1.90;1.80;;;9.20;99.90;;;9.56;nan;100822.66;5014014;28;20694;-66
2023/03/29 06:23:52;;;;;;;1.17;0.97;;;9.40;99.90;;;9.61;nan;100821.41;5012802;28;20699;-65
2023/03/29 06:26:19;;;;;;;1.53;1.43;;;9.50;99.90;;;9.58;nan;100821.63;5002788;28;21325;-66
2023/03/29 06:28:46;;;;;;;1.60;1.57;;;9.50;99.90;;;9.61;nan;100825.78;5012859;28;20641;-66
2023/03/29 06:31:15;;;;;;;4.13;1.70;;;9.50;99.90;;;9.70;nan;100819.97;5006806;28;20614;-64
2023/03/29 06:33:42;;;;;;;2.30;1.30;;;9.60;99.90;;;9.86;nan;100815.44;4996689;28;20634;-66
2023/03/29 06:36:10;;;;;;;1.93;1.83;;;9.80;99.90;;;9.89;nan;100810.00;5011962;28;20692;-66
2023/03/29 06:38:37;;;;;;;1.63;1.53;;;9.90;99.90;;;10.00;nan;100810.13;5011540;28;20629;-65
2023/03/29 06:41:11;;;;;;;1.40;1.33;;;9.90;99.90;;;10.06;nan;100817.53;5012916;28;20851;-67
2023/03/29 06:43:38;;;;;;;1.60;1.60;;;10.00;99.90;;;10.11;nan;100815.50;5011058;28;20997;-66
2023/03/29 06:46:10;;;;;;;3.77;1.80;;;10.00;99.90;;;10.17;nan;100815.09;5012779;28;20988;-66
2023/03/29 06:48:39;;;;;;;2.77;1.23;;;10.10;99.90;;;10.20;nan;100817.47;5007407;28;20634;-65
2023/03/29 06:51:07;;;;;;;0.90;0.90;;;10.20;99.90;;;10.21;nan;100820.91;5010933;28;20645;-67
2023/03/29 06:53:34;;;;;;;1.30;1.30;;;10.20;99.90;;;10.32;nan;100821.88;5009060;28;21023;-66
2023/03/29 06:56:07;;;;;;;3.70;1.63;;;10.20;99.90;;;10.59;nan;100833.03;5005596;28;20636;-66
2023/03/29 06:58:34;;;;;;;1.73;1.63;;;10.50;99.90;;;10.87;nan;100832.81;5005001;28;20635;-66
2023/03/29 07:01:02;;;;;;;1.17;1.17;;;10.70;99.90;;;11.06;nan;100834.94;4994627;28;20624;-66
2023/03/29 07:03:30;;;;;;;5.33;2.30;;;11.00;99.90;;;11.27;nan;100832.56;4998806;28;21202;-65
2023/03/29 07:06:08;;;;;;;2.70;1.77;;;11.10;99.90;;;11.49;nan;100835.31;5011674;28;21237;-65
2023/03/29 07:08:42;;;;;;;1.60;1.53;;;11.40;99.90;;;11.70;nan;100833.78;5012314;28;20629;-66
2023/03/29 07:11:14;;;;;;;0.67;0.67;;;11.50;99.90;;;11.75;nan;100831.69;4999941;28;20644;-66
2023/03/29 07:13:42;;;;;;;2.03;1.20;;;11.60;99.90;;;11.71;nan;100832.88;4993519;28;20658;-66
2023/03/29 07:16:11;;;;;;;2.80;1.87;;;11.70;99.90;;;11.45;nan;100829.50;5004394;28;20669;-66
2023/03/29 07:18:41;;;;;;;2.00;1.87;;;11.40;99.90;;;11.22;nan;100826.88;5010608;28;20640;-66
2023/03/29 07:21:11;;;;;;;1.93;1.70;;;11.20;99.90;;;11.06;nan;100828.88;5007309;28;20635;-66
2023/03/29 07:23:39;;;;;;;1.47;1.40;;;11.00;99.90;;;10.95;nan;100829.63;5012023;28;21058;-66
2023/03/29 07:26:21;;;;;;;1.23;1.13;;;10.90;99.90;;;10.76;nan;100827.50;4999213;28;20638;-68
2023/03/29 07:28:54;;;;;;;1.63;1.53;;;10.70;99.90;;;10.66;nan;100831.69;4952891;28;20721;-68
2023/03/29 07:31:21;;;;;;;1.40;1.40;;;10.60;99.90;;;10.66;nan;100834.28;4955679;28;20639;-70
2023/03/29 07:33:51;;;;;;;1.37;1.27;;;10.60;99.90;;;10.64;nan;100833.56;4954528;28;20668;-69
2023/03/29 07:36:18;;;;;;;1.40;1.40;;;10.60;99.90;;;10.60;nan;100832.13;4905881;29;20647;-68
2023/03/29 07:38:45;;;;;;;1.70;1.60;;;10.50;99.90;;;10.52;nan;100836.19;4959673;28;20639;-68
2023/03/29 07:41:12;;;;;;;1.67;1.57;;;10.50;99.90;;;10.50;nan;100838.06;4972485;28;21250;-66
2023/03/29 07:43:40;;;;;;;1.60;1.33;;;10.40;99.90;;;10.37;nan;100824.19;4973911;28;20979;-68
2023/03/29 07:46:08;;;;;;;2.00;1.80;;;10.40;99.90;;;10.38;nan;100834.50;4974436;28;20703;-66
2023/03/29 07:48:35;;;;;;;1.60;1.23;;;10.30;99.90;;;10.36;nan;100831.16;4973852;28;20654;-68
2023/03/29 07:51:03;;;;;;;2.50;1.60;;;10.30;99.90;;;10.33;nan;100839.19;4973727;28;20997;-66
2023/03/29 07:53:31;;;;;;;1.17;1.07;;;10.20;99.90;;;10.34;nan;100833.03;4956646;28;20671;-67
2023/03/29 07:55:58;;;;;;;1.50;1.40;;;10.20;99.90;;;10.46;nan;100832.19;4973707;28;20643;-67
2023/03/29 07:58:25;;;;;;;1.63;1.53;;;10.30;99.90;;;10.50;nan;100833.66;4969293;28;20943;-67
2023/03/29 08:00:52;;;;;;;0.80;0.80;;;10.40;99.90;;;10.48;nan;100839.91;4973645;28;21000;-70
2023/03/29 08:03:19;;;;;;;1.57;1.47;;;10.40;99.90;;;10.43;nan;100840.25;4975156;28;20631;-67
2023/03/29 08:05:46;;;;;;;1.73;1.63;;;10.40;99.90;;;10.51;nan;100843.16;4965687;28;21200;-67
2023/03/29 08:08:13;;;;;;;1.80;1.27;;;10.40;99.90;;;10.52;nan;100839.59;4955829;28;20651;-66
2023/03/29 08:10:41;;;;;;;3.47;2.00;;;10.40;99.90;;;10.56;nan;100838.44;4949637;28;20647;-67
2023/03/29 08:13:09;;;;;;;1.60;1.43;;;10.40;99.90;;;10.62;nan;100832.84;4955166;28;21035;-67
2023/03/29 08:15:38;;;;;;;1.70;1.60;;;10.50;99.90;;;10.67;nan;100840.31;4971680;28;20635;-66
2023/03/29 08:18:06;;;;;;;1.17;1.07;;;10.50;99.90;;;10.76;nan;100842.31;4972804;28;20640;-67
2023/03/29 08:20:33;;;;;;;1.90;1.80;;;10.60;99.90;;;10.85;nan;100839.06;4956039;28;20627;-66
2023/03/29 08:23:00;;;;;;;1.33;0.60;;;10.70;99.90;;;10.89;nan;100840.50;4972188;28;21480;-66
2023/03/29 08:25:28;;;;;;;1.30;1.30;;;10.70;99.90;;;11.02;nan;100837.88;4972905;28;20640;-65
2023/03/29 08:27:54;;;;;;;0.73;0.63;;;10.90;99.90;;;11.13;nan;100848.41;4972022;28;20663;-68
2023/03/29 08:30:21;;;;;;;1.70;1.20;;;11.00;99.90;;;11.19;nan;100840.97;4971896;28;20639;-67
2023/03/29 08:32:48;;;;;;;1.47;1.37;;;11.00;99.90;;;11.20;nan;100845.25;4972994;28;21314;-68
2023/03/29 08:35:18;;;;;;;1.83;1.73;;;11.10;99.90;;;11.24;nan;100836.28;4954822;28;20635;-66
2023/03/29 08:37:45;;;;;;;1.30;1.23;;;11.10;99.90;;;11.25;nan;100831.84;4973060;28;20639;-66
2023/03/29 08:40:26;;;;;;;2.47;1.57;;;11.10;99.90;;;11.33;nan;100829.56;4970611;28;20638;-66
2023/03/29 08:43:40;;;;;;;1.47;1.37;;;11.20;99.90;;;11.44;nan;100826.97;4965968;28;20647;-68
2023/03/29 08:46:22;;;;;;;1.57;1.47;;;11.30;99.90;;;11.69;nan;100834.75;4951517;28;21009;-66
2023/03/29 08:49:00;;;;;;;1.60;1.50;;;11.50;99.90;;;11.89;nan;100839.34;4956045;28;20640;-67
2023/03/29 08:51:36;;;;;;;1.33;1.23;;;11.70;99.90;;;12.05;nan;100845.06;4959862;28;21212;-67
2023/03/29 08:54:20;;;;;;;1.80;1.70;;;11.90;99.90;;;12.05;nan;100829.38;4966838;28;20671;-67
2023/03/29 08:56:48;;;;;;;1.13;1.13;;;11.90;99.90;;;12.04;nan;100832.97;4954225;28;20721;-68
2023/03/29 08:59:27;;;;;;;1.40;1.30;;;11.90;99.90;;;12.00;nan;100836.75;4953173;28;20673;-69
2023/03/29 09:01:57;;;;;;;1.20;1.10;;;11.90;99.90;;;12.02;nan;100832.25;4942884;28;20644;-68
2023/03/29 09:04:36;;;;;;;20.30;9.53;;;11.90;99.90;;;12.01;nan;100832.38;4945471;28;21189;-67
2023/03/29 09:07:09;;;;;;;3.80;2.90;;;11.90;99.90;;;12.01;nan;100832.38;4963454;28;21091;-71
2023/03/29 09:09:37;;;;;;;3.07;1.70;;;11.90;99.90;;;11.92;nan;100838.28;4945051;28;21243;-68
2023/03/29 09:12:23;;;;;;;1.70;1.60;;;11.80;99.90;;;11.91;nan;100833.97;4968385;28;21219;-69
2023/03/29 09:15:00;;;;;;;1.37;1.27;;;11.80;99.90;;;11.89;nan;100831.50;4972815;28;20611;-71
2023/03/29 09:17:46;;;;;;;1.63;1.53;;;11.80;99.90;;;11.96;nan;100832.72;4970580;28;20638;-68
2023/03/29 09:20:56;;;;;;;1.60;1.17;;;11.80;99.90;;;12.20;nan;100830.03;4971961;28;20650;-68
2023/03/29 09:23:59;;;;;;;2.57;1.53;;;12.00;99.90;;;12.55;nan;100832.56;4960971;28;20693;-68
2023/03/29 09:26:40;;;;;;;3.03;1.53;;;12.40;99.90;;;12.84;nan;100833.78;4965780;28;20651;-69
2023/03/29 09:30:08;;;;;;;1.07;1.07;;;12.70;99.90;;;13.08;nan;100837.97;4967560;28;20635;-68
2023/03/29 09:32:48;;;;;;;10.83;1.53;;;12.90;99.90;;;13.34;nan;100835.88;4938216;28;20694;-68
2023/03/29 09:35:40;;;;;;;1.10;1.10;;;13.10;99.90;;;13.57;nan;100834.88;4936320;28;21217;-68
2023/03/29 09:38:12;;;;;;;1.70;1.60;;;13.40;99.90;;;13.99;nan;100830.53;4971762;28;21225;-67
2023/03/29 09:40:45;;;;;;;2.10;1.10;;;13.80;99.90;;;14.35;nan;100835.34;4970143;28;20631;-66
2023/03/29 09:43:17;;;;;;;1.07;1.03;;;14.10;99.90;;;14.78;nan;100837.75;4971613;28;21169;-67
2023/03/29 09:45:51;;;;;;;2.67;1.43;;;14.60;99.90;;;15.25;nan;100838.88;4950996;29;20647;-67
2023/03/29 09:48:19;;;;;;;1.40;1.30;;;15.10;99.90;;;15.38;nan;100829.78;4954281;28;20659;-66
2023/03/29 09:50:51;;;;;;;1.57;1.47;;;15.30;99.90;;;15.48;nan;100822.75;4973570;28;20662;-69
2023/03/29 09:53:20;;;;;;;2.90;1.17;;;15.30;99.90;;;15.60;nan;100817.38;4961266;28;20778;-67
2023/03/29 09:55:49;;;;;;;2.40;2.10;;;15.40;99.90;;;15.80;nan;100822.50;4971145;28;20638;-68
2023/03/29 09:58:22;;;;;;;1.30;1.20;;;15.70;99.90;;;16.09;nan;100823.31;4969562;28;20651;-66
2023/03/29 10:00:49;;;;;;;1.43;1.43;;;15.90;99.90;;;16.37;nan;100818.97;4973800;28;20616;-71
2023/03/29 10:03:26;;;;;;;1.20;1.20;;;16.20;99.90;;;16.56;nan;100824.22;4955419;28;20627;-66
2023/03/29 10:05:58;;;;;;;1.47;1.47;;;16.40;99.90;;;16.86;nan;100812.59;4978440;28;20638;-67
2023/03/29 10:08:41;;;;;;;1.27;1.20;;;16.60;99.90;;;17.33;nan;100813.28;4978273;28;20651;-67
2023/03/29 10:11:29;;;;;;;2.10;1.80;;;17.10;99.90;;;17.38;nan;100805.75;4977562;28;20638;-67
2023/03/29 10:14:02;;;;;;;2.03;1.30;;;17.20;99.90;;;17.80;nan;100810.28;4968722;28;20659;-66
2023/03/29 10:16:37;;;;;;;2.90;1.80;;;17.60;99.00;;;18.10;nan;100803.75;4946732;28;20648;-68
2023/03/29 10:19:30;;;;;;;2.73;1.83;;;17.90;98.30;;;18.64;nan;100796.53;4942376;28;21201;-67
2023/03/29 10:22:03;;;;;;;1.53;1.47;;;18.50;97.00;;;19.58;nan;100798.00;4968382;28;20693;-66
2023/03/29 10:24:30;;;;;;;1.30;1.27;;;19.50;94.80;;;20.07;nan;100783.75;4943682;28;21274;-69
2023/03/29 10:27:11;;;;;;;1.67;1.37;;;20.00;93.40;;;20.03;nan;100787.75;4977482;28;20829;-67
2023/03/29 10:29:41;;;;;;;1.10;1.10;;;20.00;92.30;;;19.51;nan;100787.22;4955936;28;20640;-68
2023/03/29 10:32:33;;;;;;;4.07;1.40;;;19.60;92.40;;;19.11;nan;100782.66;4956619;28;20627;-66
2023/03/29 10:35:22;;;;;;;2.50;1.33;;;19.20;92.50;;;18.63;nan;100773.75;4959512;28;20622;-67
2023/03/29 10:37:52;;;;;;;1.53;1.40;;;18.60;93.00;;;18.36;nan;100767.63;4978071;28;20654;-67
2023/03/29 10:40:26;;;;;;;11.50;1.50;;;18.30;93.60;;;18.33;nan;100775.88;4977670;28;20631;-64
2023/03/29 10:43:19;;;;;;;1.53;1.43;;;18.20;94.20;;;18.20;nan;100770.19;4977141;28;21018;-67
2023/03/29 10:45:52;;;;;;;2.13;1.23;;;18.10;94.40;;;18.37;nan;100769.28;4961399;28;20690;-66
2023/03/29 10:48:27;;;;;;;30.53;15.43;;;18.10;94.90;;;18.47;nan;100769.19;4943704;28;20660;-65
2023/03/29 10:50:59;;;;;;;13.53;6.23;;;18.30;94.40;;;18.21;nan;100763.06;4968808;28;21194;-67
2023/03/29 10:53:33;;;;;;;2.67;1.47;;;18.10;94.20;;;18.00;nan;100758.16;4960752;28;21271;-67
2023/03/29 10:56:40;;;;;;;12.63;1.70;;;17.90;94.20;;;17.87;nan;100752.44;4959759;28;20632;-66
2023/03/29 10:59:31;;;;;;;1.77;1.67;;;17.70;94.20;;;17.47;nan;100747.66;4975123;28;20642;-67